X  Sluiten METAR luchtvaart weer gegevens      EHKD De Kooy Airport
Temperatuur
14°C Temperatuur
13°C Dauwpunt
94% Vochtigheid



Wind
5 M/S
12 MPH
19 KM/U
10 KTS



170°
Z
Huidig weer

Thunderstorm, Regen Thunderstorm, Regen
Luchtdruk 1006.77 (hPa) - 29.73 (inHg)
Zicht 3.7 (mijl) - 6 (km)
Vliegveld
Vliegveld code EHKD

Locatie : De Kooy Airport
Afstand: 34 (km)

Metar:
EHKD 211855Z AUTO 17010KT 130V210 6000 TSRA FEW013 FEW015CB SCT031 BKN051 14/13 Q1007 WHT

Tijd: 21-05-2024 20:55 CEST